Sonic Adventure (DX): Time Rankings

Records: Times | Rings | Scores | Races | Bosses | Freestyle
Leaders: Times | Rings | Scores | Races | Bosses | Freestyle | Overall
Rank Player Percent Points Date
1 Gamepro011 98.8% 69 04-22-22
2 Niczur 98.6% 80 04-22-22
3 Sonicspeedruner 98.0% 118 04-22-22
4 Nim 94.4% 331 04-22-22
5 Jawzun 93.5% 381 04-22-22
6 Dashjump 93.5% 383 04-22-22
7 DarkPolarNight 92.6% 437 04-22-22
8 drminus 90.4% 567 04-22-22
9 F-Man 90.3% 573 04-22-22
10 THC98 90.0% 593 04-22-22
11 ike6252 88.1% 708 04-22-22
12 Avento128bits 87.8% 725 04-22-22
13 francisco 87.2% 760 04-22-22
14 DarkspinesSonic 86.7% 786 04-22-22
15 ethmar 86.7% 788 04-22-22
16 Marth 86.6% 793 04-22-22
17 frankoredstrato 85.4% 867 04-22-22
18 chainchump 83.7% 966 04-22-22
19 TheRealShadnic 83.6% 972 04-22-22
20 Paragod 82.5% 1041 04-22-22
21 HyperSonic7701 82.2% 1054 04-22-22
22 Calfd 82.0% 1070 04-22-22
23 Coolfansonic 79.5% 1218 04-22-22
24 InferSaime 79.1% 1242 04-22-22
25 xXMegaManXx 77.8% 1320 04-22-22
26 Stefan 77.7% 1323 04-22-22
27 PfoSonic 77.2% 1354 04-22-22
28 CoEmpathy 77.0% 1366 04-22-22
29 bertin 75.5% 1456 04-22-22
30 yoshifan 75.1% 1477 04-22-22
31 Dave Cramer 73.4% 1581 04-22-22
32 RPGnutter 73.2% 1591 04-22-22
33 sonicam 71.6% 1685 04-22-22
34 Cybrax 71.3% 1707 04-22-22
35 Dekuboy 70.2% 1768 04-22-22
36 Ring Rush 68.8% 1855 04-22-22
37 mike89 67.9% 1906 04-22-22
38 NintenDan 67.7% 1917 04-22-22
39 chaos shadow 67.6% 1924 04-22-22
40 a_moustache 66.6% 1987 04-22-22
41 SkyLights 64.3% 2120 04-22-22
42 iden1 63.7% 2157 04-22-22
43 Combo 62.9% 2207 04-22-22
44 SADXTryHard 60.5% 2350 04-22-22
45 P1 Pause 60.0% 2380 04-22-22
46 WeegeeZV 58.8% 2449 04-22-22
47 Groudon199 58.1% 2488 04-22-22
48 AxlThunder 57.7% 2516 04-22-22
49 Game_Complete 57.4% 2533 04-22-22
50 Shadow Jacky 57.2% 2542 04-22-22
51 VMU Player Banned 56.4% 2591 04-22-22
52 Thorn 56.2% 2606 04-22-22
53 SB737 55.0% 2673 04-22-22
54 The Knuckles Chao 54.8% 2687 04-22-22
55 SadisticMystic 54.8% 2689 04-22-22
56 Chao_Fan 54.7% 2695 04-22-22
57 Parax 54.3% 2717 04-22-22
58 Mastakirby 54.2% 2723 04-22-22
59 KinkyCadence 53.7% 2754 04-22-22
60 mauserman 53.6% 2757 04-22-22
61 OmegaDJ 53.6% 2758 04-22-22
62 LittleBigness 53.6% 2760 04-22-22
63 Psyknux 53.2% 2781 04-22-22
64 Auriman1 53.0% 2795 04-22-22
65 magnum12 52.9% 2801 04-22-22
66 Turbos 52.5% 2826 04-22-22
67 GerbilSoft 51.8% 2867 04-22-22
68 GreatStar 51.4% 2891 04-22-22
69 Webber3000 51.1% 2909 04-22-22
70 Hipertails12 50.5% 2945 04-22-22
71 N 50.2% 2961 04-22-22
72 SPVLABS 49.0% 3031 04-22-22
73 James_Bertolli 48.1% 3083 04-22-22
74 Cream147 47.7% 3106 04-22-22
75 welldooder64 46.9% 3155 04-22-22
76 Skylace 46.7% 3166 04-22-22
77 Omega Rafael Santos 46.6% 3174 04-22-22
78 Quartz 46.6% 3177 04-22-22
79 Diamond 46.4% 3186 04-22-22
80 Psymar 46.3% 3193 04-22-22
81 SonicWinDX 45.6% 3232 04-22-22
82 teamblackarms 45.3% 3253 04-22-22
83 Cyan Ryan 44.7% 3289 04-22-22
84 Andrea Ritsu 44.6% 3293 04-22-22
85 buddychaos0415 44.4% 3306 04-22-22
86 SilverSonic 43.8% 3341 04-22-22
87 SilvertheAlmighty 43.4% 3366 04-22-22
87 sonicd5 43.4% 3366 04-22-22
89 paulie9990 43.3% 3370 04-22-22
90 itsPersonnal 42.5% 3417 04-22-22
91 metanightmare22 42.5% 3420 04-22-22
92 lordmetalsonic 40.3% 3551 04-22-22
93 Arch 40.0% 3568 04-22-22
94 videogamemaster777 39.1% 3620 04-22-22
95 Termon 39.0% 3624 04-22-22
96 supersonicfan 38.7% 3643 04-22-22
97 Zethor 38.5% 3655 04-22-22
98 Drakodan 38.2% 3677 04-22-22
99 Kanimayo_Jp 37.9% 3693 04-22-22
99 LilZero 37.9% 3693 04-22-22
101 supersonic465 37.6% 3709 04-22-22
102 FuzZerd 37.4% 3723 04-22-22
103 JamminX42 37.1% 3740 04-22-22
104 eggFL 37.0% 3745 04-22-22
105 BigAL49 36.7% 3761 04-22-22
106 Don 36.2% 3791 04-22-22
107 danieldude 36.1% 3800 04-22-22
108 Siavash Tazari 35.3% 3849 04-22-22
109 Zurggriff 35.1% 3860 04-22-22
110 Fr3nZy 35.0% 3864 04-22-22
111 f0rever_zer0 34.4% 3900 04-22-22
112 Cod4Scopes 34.1% 3917 04-22-22
113 Austinf 33.4% 3962 04-22-22
114 LinksDarkArrows 33.3% 3963 04-22-22
115 Therio 33.1% 3975 04-22-22
116 elecmouse101 32.6% 4006 04-22-22
117 Staf 32.2% 4029 04-22-22
118 MiStEr_ShAoLiN 31.9% 4048 04-22-22
119 ModifiedMonkee 31.8% 4056 04-22-22
120 R3FR4G 31.8% 4057 04-22-22
121 Twilisailor 31.6% 4069 04-22-22
122 videogamer1014 31.3% 4085 04-22-22
123 BrokenArthritis 31.3% 4086 04-22-22
124 Xia 30.7% 4119 04-22-22
125 AC-Tygo 30.6% 4124 04-22-22
126 welshmoose05 30.3% 4142 04-22-22
127 OddCook 29.9% 4169 04-22-22
128 The Great Lord Mick 29.5% 4191 04-22-22
129 Aitamen 29.1% 4215 04-22-22
130 Mcshuggets 28.9% 4225 04-22-22
131 Maxinfamily 28.8% 4232 04-22-22
132 Matt_TY 28.7% 4240 04-22-22
133 joecoolgames 28.4% 4256 04-22-22
134 dabestgamer 28.4% 4259 04-22-22
135 SuperBlitzCraig 28.0% 4283 04-22-22
136 Irregular Zero 27.9% 4287 04-22-22
137 Modest 27.2% 4330 04-22-22
138 SuperSonic101 27.1% 4335 04-22-22
139 Shadowthegreat 27.1% 4336 04-22-22
140 superjupi 27.0% 4343 04-22-22
141 Rolken 26.7% 4361 04-22-22
142 Hunters13 26.6% 4366 04-22-22
143 thewaytodawnnn 26.3% 4382 04-22-22
144 sonamyfan666 26.2% 4391 04-22-22
145 iarebored 25.9% 4405 04-22-22
146 koinu93 25.8% 4413 04-22-22
147 Spinballwizard 25.7% 4416 04-22-22
148 SaviourDC 25.7% 4418 04-22-22
149 SonicKnuckles 25.7% 4420 04-22-22
150 Pokemonmaster888 24.8% 4469 04-22-22
151 EngiNerd 24.7% 4478 04-22-22
152 adf 24.7% 4479 04-22-22
153 SonicAD 24.6% 4482 04-22-22
154 Megaman EXE565 23.7% 4537 04-22-22
155 The T 23.5% 4548 04-22-22
156 andy120195 23.3% 4562 04-22-22
157 Sonic Singularity 22.9% 4584 04-22-22
158 Platformer 22.7% 4599 04-22-22
159 SeaWolf 22.4% 4615 04-22-22
160 timpkmn89 22.3% 4619 04-22-22
161 Swift Hobo 22.2% 4629 04-22-22
162 Sondow 21.5% 4667 04-22-22
163 Rickyman48 21.2% 4685 04-22-22
164 KitsuneYamaro 20.9% 4701 04-22-22
165 FoxBoy 20.8% 4707 04-22-22
166 Sm4sh 20.8% 4710 04-22-22
167 TFEC Headshot 20.2% 4743 04-22-22
168 Jerzia 20.2% 4744 04-22-22
169 Kogen Player Banned 19.8% 4770 04-22-22
170 Badlex727 19.6% 4782 04-22-22
171 Starlight Sable 19.5% 4786 04-22-22
172 IsisDazs 18.9% 4821 04-22-22
173 Powerjohn25 18.7% 4834 04-22-22
174 HyperSonic64 18.7% 4835 04-22-22
175 crazy1993 18.5% 4844 04-22-22
175 Tethys 18.5% 4844 04-22-22
177 andres430 18.3% 4856 04-22-22
178 SonicU260 17.3% 4915 04-22-22
179 MPit08 17.0% 4933 04-22-22
180 Swinkly 17.0% 4938 04-22-22
181 iSonicKid2K 16.3% 4979 04-22-22
182 dShadow 16.0% 4996 04-22-22
183 Cutiefox 15.7% 5011 04-22-22
184 Miles9999 15.6% 5021 04-22-22
185 Chawkk 15.4% 5029 04-22-22
186 Monkeh 15.4% 5031 04-22-22
187 Crispian 15.3% 5037 04-22-22
188 DaDude 14.9% 5063 04-22-22
189 Drflash55 14.5% 5084 04-22-22
190 Bass 14.3% 5095 04-22-22
191 Destroyer121121 14.2% 5103 04-22-22
192 Cruizer 14.2% 5105 04-22-22
193 Yish 14.1% 5111 04-22-22
194 zapp 14.0% 5115 04-22-22
195 neaolas 13.8% 5123 04-22-22
196 UninspiredUsername 13.8% 5127 04-22-22
197 superiorsonic 13.6% 5135 04-22-22
198 gamefreak1292 13.5% 5143 04-22-22
199 Cooljay 13.2% 5163 04-22-22
200 Sora_yx 13.0% 5173 04-22-22
201 Chaos_Overlord 12.4% 5211 04-22-22
202 Valfore 12.0% 5233 04-22-22
203 GarnetPrincess 11.8% 5244 04-22-22
204 Dage4Aquatic 11.7% 5249 04-22-22
205 ShinigamiMachine 11.5% 5260 04-22-22
206 soniccoloursunleashed 11.5% 5264 04-22-22
207 Sonicsuperstar1 11.1% 5288 04-22-22
208 FocusSight64 10.8% 5307 04-22-22
209 Werey 10.6% 5314 04-22-22
210 booo95 10.6% 5315 04-22-22
211 Mo Player Banned 10.4% 5327 04-22-22
212 SirTobbii 10.4% 5329 04-22-22
213 sonicspeed 10.3% 5334 04-22-22
214 Jua Rever 10.2% 5338 04-22-22
215 Sithwarrior26 9.6% 5374 04-22-22
216 Venick409 9.5% 5382 04-22-22
217 nman36 9.4% 5390 04-22-22
218 CyberShadow 8.8% 5423 04-22-22
219 ingx24 8.8% 5424 04-22-22
220 dekki1234 8.6% 5438 04-22-22
221 ArthurVGCP 8.4% 5446 04-22-22
222 Fozer 8.3% 5456 04-22-22
223 Egor305 8.2% 5457 04-22-22
224 Regano1000 8.1% 5466 04-22-22
225 Colomb_30 8.1% 5467 04-22-22
226 1stKirbyever 7.9% 5477 04-22-22
227 nuckrieg 7.7% 5490 04-22-22
228 TimTH 7.6% 5495 04-22-22
229 Brian_pso 7.5% 5502 04-22-22
230 douglas 7.3% 5512 04-22-22
231 TakaRikka 7.2% 5519 04-22-22
232 Th4tN1nj4Turtl3 7.1% 5522 04-22-22
233 Zip 7.0% 5528 04-22-22
234 wheatrich 6.8% 5542 04-22-22
235 Mariosonic15 6.7% 5549 04-22-22
236 ieatatsonic 6.5% 5561 04-22-22
236 MStitomix 6.5% 5561 04-22-22
238 niscool 6.5% 5563 04-22-22
239 HermitHelmet 6.4% 5565 04-22-22
240 Cort_pso 6.1% 5583 04-22-22
241 Got4n 6.1% 5587 04-22-22
242 Triseena 6.0% 5592 04-22-22
243 Jose_15 5.8% 5601 04-22-22
244 Artie 5.6% 5613 04-22-22
245 SuperSonicfan9595 5.6% 5616 04-22-22
246 BlankTH 5.5% 5618 04-22-22
247 Ace747 5.3% 5629 04-22-22
247 HHNNBBHHN 5.3% 5629 04-22-22
249 Richied 5.2% 5639 04-22-22
250 Paixii 5.1% 5641 04-22-22
251 Aiko 5.1% 5643 04-22-22
252 FSSRandomvids 4.8% 5662 04-22-22
253 BallzeH 4.8% 5663 04-22-22
253 slade23 4.8% 5663 04-22-22
255 Jamixesa 4.7% 5665 04-22-22
256 PsyBorg 4.7% 5667 04-22-22
257 ArcticDragon 4.7% 5668 04-22-22
258 Mankster101 4.7% 5670 04-22-22
259 BecauseWarAnvil 4.6% 5673 04-22-22
260 Xandre69 4.5% 5677 04-22-22
261 Nickson98 4.5% 5681 04-22-22
262 Crydio 4.4% 5686 04-22-22
263 TheUltraBlur 4.4% 5688 04-22-22
264 MarewBFN 4.1% 5701 04-22-22
265 stanski 4.1% 5705 04-22-22
266 tal39h 4.0% 5710 04-22-22
267 knuckles_sonic8 3.8% 5718 04-22-22
268 Blue Infamy 3.8% 5722 04-22-22
269 ALundstrom10 3.7% 5724 04-22-22
270 p0ker 3.7% 5725 04-22-22
271 ErrortheCucco 3.6% 5733 04-22-22
272 Rikum22 3.5% 5736 04-22-22
273 sonic1001 3.4% 5745 04-22-22
274 AJSIV 3.4% 5747 04-22-22
275 TheChaosEmeraIds 3.3% 5748 04-22-22
276 syco1098 3.3% 5751 04-22-22
277 IDGeek121 3.3% 5752 04-22-22
277 Sonic the Hedgehod16 3.3% 5752 04-22-22
279 ASINISTERTACO 3.1% 5760 04-22-22
280 sonicfan9 3.0% 5767 04-22-22
281 themachoman202 2.9% 5777 04-22-22
282 MK 2.8% 5780 04-22-22
283 Fivavoa 2.7% 5786 04-22-22
284 Mr. Jones 2.7% 5788 04-22-22
285 BlackArmsShadow 2.6% 5791 04-22-22
285 djmat 2.6% 5791 04-22-22
287 arcfx1985 2.6% 5792 04-22-22
287 Sonique Hedgehog 2.6% 5792 04-22-22
289 FlandreScarlet9999vr 2.5% 5797 04-22-22
289 ptorflaxendrosis 2.5% 5797 04-22-22
291 Zeldocto 2.4% 5802 04-22-22
292 BeeAwwb 2.4% 5805 04-22-22
293 KaM Mark MaK 2.3% 5811 04-22-22
294 ShadouZaHejjihoggu 2.3% 5812 04-22-22
295 darkstarblaze 2.2% 5819 04-22-22
296 Sonic The Star 2.1% 5822 04-22-22
297 darkersupershadic 2.1% 5823 04-22-22
298 SpiritDragon1995 2.1% 5824 04-22-22
299 sonic29887 2.0% 5829 04-22-22
300 Sarger001 2.0% 5830 04-22-22
301 Grady219 1.9% 5832 04-22-22
302 Jawaah 1.9% 5836 04-22-22
302 shadowblast63 Player Banned 1.9% 5836 04-22-22
304 Antek 1.8% 5840 04-22-22
305 Klaus 1.8% 5842 04-22-22
306 BioShadow 1.6% 5850 04-22-22
307 IcKY 1.5% 5858 04-22-22
308 isaihtb11 1.4% 5865 04-22-22
308 SkyBon 1.4% 5865 04-22-22
310 Shanekilz 1.4% 5866 04-22-22
311 OhNoes! 1.3% 5870 04-22-22
312 zaktu40 1.3% 5872 04-22-22
313 gaara1234 1.2% 5875 04-22-22
313 S-MS32X-S 1.2% 5875 04-22-22
315 MastaToken 1.1% 5883 04-22-22
316 Mister_Slick 1.0% 5886 04-22-22
317 Sonic06Fan 1.0% 5890 04-22-22
318 Rush Hero 0.9% 5892 04-22-22
319 ChaosNexuss 0.9% 5893 04-22-22
320 oTaiIilLsS 0.9% 5896 04-22-22
321 SonicMega167 0.8% 5898 04-22-22
322 SilverK 0.8% 5900 04-22-22
323 gamed00d 0.8% 5901 04-22-22
324 Burningskull123 0.5% 5917 04-22-22
325 Heroes_Hater 0.5% 5920 04-22-22
326 Sonicontherun 0.3% 5929 04-22-22
327 antiwwe 0.2% 5935 04-22-22
328 Iwannabelink 0.2% 5937 04-22-22
329 Genuine Hedgehog 0.1% 5939 04-22-22
330 dragondragon18 0.1% 5943 04-22-22
331 SonicK100 0.1% 5944 04-22-22
332 Tyrouble 0.0% 5949 04-22-22
333 LancexExWx 0.0% 5950 04-22-22
333 neji_hyuuga 0.0% 5950 04-22-22
333 Over 0.0% 5950 04-22-22
333 sdj6707 Player Banned 0.0% 5950 04-22-22
333 Tran Sonic Fan Player Banned 0.0% 5950 04-22-22

This page is using the New Data Table System. [FUTURE]

Game ID: 3 | Category ID: 1
Hits: 11,073 | Hits This Month: 54 | DB Calls: 24 | Mem Usage: 945.97 KB | Time: 0.06s | Printable

The Sonic Center v3.9
Copyright 2003-2011 by The Sonic Center Team.